Terminal Aerodrome Forecast
Issued by NWS

Home | Current Version | Previous Version | Text Only | Print | Product List | Glossary On
Versions: 1 2 3 4 5 6 7 8 9 10 11 12 13 14 15 16 17 18
000
FTUS44 KTSA 240600 AAA
TAFBVO
TAF AMD
KBVO 240601Z 2406/2506 00000KT 2SM BR FEW250
      TEMPO 2406/2410 1/2SM FG VV001
     FM241000 00000KT 2SM BR FEW250
      TEMPO 2410/2414 1/2SM FG VV001
     FM241400 10007KT P6SM SCT050
     FM250000 15003KT P6SM SKC=

USA.gov is the U.S. government's official web portal to all federal, state and local government web resources and services.